Terminal Aerodrome Forecast
Issued by NWS Lake Charles, LA

Home | Current Version | Previous Version | Text Only | Print | Product List | Glossary On
Versions: 1 2 3 4 5 6 7 8 9 10 11 12 13 14 15 16 17
668
FTUS44 KLCH 032116 AAB
TAFBPT
TAF AMD
KBPT 032116Z 0321/0418 04013KT P6SM -RA SCT008 OVC015
      TEMPO 0321/0401 2SM SHRA BR OVC008
     FM040100 04011KT P6SM -RA SCT008 OVC015
      TEMPO 0401/0405 2SM SHRA BR OVC008
     FM040500 02009KT 4SM -SHRA BR OVC008=

USA.gov is the U.S. government's official web portal to all federal, state and local government web resources and services.